Latest Weather Observations for Warrnambool

IDV60801

Issued at 5:22 pm EDT Saturday 5 December 2020 (issued every 10 minutes, with the page automatically refreshed every 10 minutes)

About weather observations | Map of weather stations | Latest weather observations for VIC | Other Formats
Station Details ID: 090186 Name: WARRNAMBOOL AIRPORT NDB Lat: -38.29 Lon: 142.45 Height: 70.8 m
Data from the previous 72 hours. | See also: Recent months at Warrnambool
Date/Time
EDT
Temp
°C
App
Temp
°C
Dew
Point
°C
Rel
Hum
%
Delta-T
°C
Wind Press
QNH
hPa
Press
MSL
hPa
Rain since
9am
mm
Dir  Spd
km/h
Gust
km/h
Spd
kts
Gust
kts
05/05:00pm 17.9 13.3 13.4 75 2.6 WNW 30 50 16 27 993.5 993.4 2.0
05/04:41pm 18.6 13.1 13.5 72 2.9 NW 35 56 19 30 993.2 993.1 2.0
05/04:30pm 18.8 12.8 14.3 75 2.6 NW 39 50 21 27 993.2 993.1 2.0
05/04:00pm 17.6 12.2 15.0 85 1.5 NW 37 57 20 31 993.5 993.4 2.0
05/03:30pm 16.4 11.9 14.9 91 0.9 NW 32 50 17 27 993.5 993.4 2.0
05/03:29pm 16.5 12.0 15.0 91 0.9 NW 32 50 17 27 993.5 993.4 2.0
05/03:00pm 16.3 13.5 15.3 94 0.6 NW 24 35 13 19 993.6 993.5 2.0
05/02:55pm 15.7 12.6 14.6 93 0.6 NNW 24 33 13 18 993.5 993.4 2.0
05/02:30pm 16.1 8.7 13.0 82 1.7 NW 44 72 24 39 994.6 994.5 1.4
05/02:22pm 18.0 8.7 3.1 37 6.9 NW 41 69 22 37 993.9 993.8 0.6
05/02:21pm 19.1 9.9 3.3 35 7.4 NNW 41 56 22 30 993.9 993.8 0.0
05/02:00pm 21.9 12.5 -0.1 23 10.0 NNW 39 50 21 27 992.3 992.2 0.0
05/01:30pm 22.8 12.4 -2.0 19 10.8 NNW 43 65 23 35 992.9 992.8 0.0
05/01:17pm 23.2 12.7 -1.0 20 10.8 NNW 44 63 24 34 993.6 993.5 0.0
05/01:00pm 23.5 12.1 -2.2 18 11.3 N 48 65 26 35 993.3 993.2 0.0
05/12:30pm 23.3 12.1 -3.9 16 11.5 N 46 69 25 37 993.6 993.5 0.0
05/12:03pm 24.5 13.6 -1.3 18 11.6 N 46 76 25 41 994.4 994.3 0.0
05/12:00pm 24.3 14.4 -0.8 19 11.4 N 41 65 22 35 994.4 994.3 0.0
05/11:49am 23.3 15.7 0.4 22 10.5 N 30 48 16 26 994.7 994.6 0.0
05/11:30am 22.5 13.8 7.5 38 7.8 NNE 43 56 23 30 994.4 994.3 0.0
05/11:19am 22.5 15.0 7.9 39 7.7 NNE 37 56 20 30 994.4 994.3 0.0
05/11:00am 20.2 12.7 6.2 40 7.1 NNE 35 48 19 26 995.6 995.5 0.0
05/10:30am 19.2 12.7 6.7 44 6.3 NE 30 43 16 23 996.3 996.2 0.0
05/10:00am 18.7 12.4 7.5 48 5.7 NE 30 39 16 21 997.5 997.4 0.0
05/09:54am 18.4 13.9 8.4 52 5.2 NE 22 33 12 18 997.9 997.8 0.0
05/09:30am 17.1 12.4 9.3 60 4.1 NE 24 32 13 17 1000.2 1000.0 0.0
05/09:00am 16.7 12.4 9.4 62 3.8 NE 22 30 12 16 1000.5 1000.3 0.0
05/08:30am 16.0 13.5 9.7 66 3.3 NNE 13 20 7 11 1001.7 1001.5 0.0
05/08:00am 16.0 12.6 9.0 63 3.6 NE 17 24 9 13 1001.6 1001.4 0.0
05/07:30am 16.5 12.4 8.7 60 4.0 NE 20 26 11 14 1001.3 1001.1 0.0
05/07:13am 16.4 10.9 9.1 62 3.8 NE 28 46 15 25 1001.5 1001.3 0.0
05/07:00am 15.2 11.3 9.3 68 3.1 NNE 20 28 11 15 1001.8 1001.6 0.0
05/06:30am 15.1 9.6 9.2 68 3.0 NNE 28 41 15 22 1001.5 1001.3 0.0
05/06:00am 14.6 8.8 9.4 71 2.7 NE 30 39 16 21 1001.7 1001.5 0.0
05/05:30am 13.4 9.0 10.4 82 1.6 NE 24 33 13 18 1002.0 1001.8 0.0
05/05:00am 12.9 8.2 10.8 87 1.1 NE 26 32 14 17 1002.9 1002.8 0.0
05/04:30am 13.1 9.0 11.3 89 1.0 NE 24 35 13 19 1004.0 1003.9 0.0
05/04:00am 13.4 9.7 11.6 89 1.0 NE 22 30 12 16 1004.5 1004.4 0.0
05/03:30am 13.5 10.2 11.7 89 1.0 NE 20 28 11 15 1005.4 1005.3 0.0
05/03:00am 13.4 9.5 12.0 91 0.8 NE 24 35 13 19 1005.4 1005.3 0.0
05/02:30am 13.1 9.8 11.7 91 0.7 NE 20 28 11 15 1006.1 1006.0 0.0
05/02:00am 13.2 9.9 11.6 90 0.9 NE 20 28 11 15 1007.4 1007.3 0.0
05/01:30am 13.3 10.5 11.4 88 1.0 NE 17 22 9 12 1008.6 1008.5 0.0
05/01:00am 12.5 10.5 11.6 94 0.5 ENE 13 19 7 10 1009.8 1009.7 0.0
05/12:30am 12.2 11.0 11.6 96 0.3 ENE 9 13 5 7 1010.9 1010.8 0.0
05/12:00am 11.9 10.6 11.1 95 0.4 E 9 11 5 6 1011.9 1011.8 0.0
 
Date/Time
EDT
Temp
°C
App
Temp
°C
Dew
Point
°C
Rel
Hum
%
Delta-T
°C
Wind Press
QNH
hPa
Press
MSL
hPa
Rain since
9am
mm
Dir  Spd
km/h
Gust
km/h
Spd
kts
Gust
kts
04/11:30pm 11.9 10.5 11.0 94 0.5 ESE 9 11 5 6 1012.1 1012.0 0.0
04/11:00pm 12.1 11.3 11.0 93 0.6 ENE 6 7 3 4 1013.0 1012.8 0.0
04/10:30pm 11.9 11.0 10.5 91 0.7 ENE 6 7 3 4 1013.3 1013.1 0.0
04/10:00pm 13.0 12.4 11.6 91 0.7 E 6 7 3 4 1013.4 1013.2 0.0
04/09:30pm 12.5 11.5 11.1 91 0.7 ESE 7 9 4 5 1013.4 1013.2 0.0
04/09:00pm 13.1 11.8 11.3 89 1.0 SSE 9 11 5 6 1013.7 1013.5 0.0
04/08:30pm 13.7 12.3 11.0 84 1.4 SE 9 13 5 7 1013.3 1013.1 0.0
04/08:00pm 14.9 13.6 11.3 79 1.9 SSE 9 13 5 7 1013.5 1013.3 0.0
04/07:30pm 15.7 14.1 11.5 76 2.3 SSE 11 15 6 8 1013.7 1013.5 0.0
04/07:00pm 16.0 14.0 11.4 74 2.5 SE 13 17 7 9 1014.0 1013.8 0.0
04/06:30pm 17.2 14.6 12.1 72 2.8 S 17 24 9 13 1014.2 1014.0 0.0
04/06:00pm 17.3 14.7 12.0 71 2.9 S 17 22 9 12 1014.4 1014.3 0.0
04/05:30pm 17.4 14.4 11.9 70 3.0 SSW 19 26 10 14 1014.8 1014.7 0.0
04/05:00pm 17.9 14.9 12.4 70 3.1 SSW 20 28 11 15 1015.3 1015.2 0.0
04/04:30pm 18.1 14.8 11.7 66 3.5 SW 20 28 11 15 1015.4 1015.3 0.0
04/04:00pm 18.8 16.4 12.5 67 3.5 SSW 17 26 9 14 1015.2 1015.1 0.0
04/03:30pm 18.4 15.1 11.7 65 3.7 SSW 20 26 11 14 1015.5 1015.4 0.0
04/03:00pm 18.3 15.0 11.6 65 3.7 SSW 20 30 11 16 1016.0 1015.9 0.0
04/02:30pm 19.1 16.3 13.3 69 3.3 SW 20 30 11 16 1016.6 1016.5 0.0
04/02:00pm 18.2 14.2 11.7 66 3.6 SSW 24 30 13 16 1016.9 1016.8 0.0
04/01:30pm 18.2 15.0 13.1 72 2.9 SW 22 32 12 17 1017.3 1017.2 0.0
04/01:00pm 18.3 14.7 13.2 72 2.9 SSW 24 32 13 17 1017.4 1017.3 0.0
04/12:30pm 18.2 14.5 12.6 70 3.1 SW 24 33 13 18 1017.6 1017.5 0.0
04/12:00pm 17.3 13.5 11.1 67 3.3 SW 22 30 12 16 1017.6 1017.5 0.0
04/11:30am 17.4 14.0 11.2 67 3.4 WSW 20 33 11 18 1017.9 1017.8 0.0
04/11:00am 17.9 14.2 11.5 66 3.5 WSW 22 35 12 19 1017.9 1017.8 0.0
04/10:30am 17.3 14.1 11.1 67 3.4 WNW 19 30 10 16 1017.9 1017.8 0.0
04/10:00am 16.0 12.4 10.7 71 2.8 W 20 32 11 17 1018.0 1017.9 0.0
04/09:30am 15.6 12.0 10.6 72 2.7 W 20 32 11 17 1018.1 1018.0 0.0
04/09:00am 15.4 13.3 11.2 76 2.2 WNW 13 22 7 12 1017.7 1017.6 0.0
04/08:30am 14.0 11.9 11.2 83 1.5 NW 13 17 7 9 1017.7 1017.6 0.0
04/08:00am 12.6 10.5 11.2 91 0.7 NW 13 17 7 9 1017.5 1017.4 0.0
04/07:30am 10.6 7.7 9.7 94 0.5 NW 15 17 8 9 1017.2 1017.1 0.0
04/07:00am 9.2 5.6 8.4 95 0.4 NW 17 19 9 10 1017.2 1017.1 0.0
04/06:30am 8.7 5.4 7.9 95 0.4 NW 15 19 8 10 1017.0 1016.9 0.0
04/06:00am 8.1 4.6 7.3 95 0.4 NW 15 17 8 9 1016.6 1016.5 0.0
04/05:30am 8.9 5.7 8.3 96 0.3 NW 15 19 8 10 1016.7 1016.6 0.0
04/05:00am 7.9 4.4 7.0 94 0.4 NW 15 19 8 10 1016.6 1016.5 0.0
04/04:30am 9.0 6.1 8.2 95 0.4 NW 13 17 7 9 1016.5 1016.4 0.0
04/04:00am 8.6 5.6 7.8 95 0.4 NW 13 17 7 9 1016.5 1016.4 0.0
04/03:30am 8.2 5.1 7.4 95 0.4 NW 13 17 7 9 1016.4 1016.3 0.0
04/03:14am 7.9 4.4 7.1 95 0.4 NW 15 17 8 9 1016.6 1016.5 0.0
04/03:00am 8.6 5.6 7.8 95 0.4 NW 13 17 7 9 1016.8 1016.7 0.0
04/02:56am 7.9 4.8 7.3 96 0.3 NW 13 15 7 8 1016.7 1016.6 0.0
04/02:30am 8.4 5.0 7.8 96 0.3 NW 15 17 8 9 1017.0 1016.9 0.0
04/02:00am 6.4 3.0 5.8 96 0.3 NW 13 13 7 7 1017.2 1017.1 0.0
04/01:30am 6.4 3.0 5.7 95 0.3 NW 13 13 7 7 1017.6 1017.5 0.0
04/01:00am 6.5 3.5 5.9 96 0.3 NW 11 13 6 7 1018.0 1017.9 0.0
04/12:30am 6.7 4.1 6.0 95 0.3 NNW 9 11 5 6 1018.1 1018.0 0.0
04/12:00am 7.0 4.4 6.1 94 0.4 NNW 9 9 5 5 1018.4 1018.3 0.0
 
Date/Time
EDT
Temp
°C
App
Temp
°C
Dew
Point
°C
Rel
Hum
%
Delta-T
°C
Wind Press
QNH
hPa
Press
MSL
hPa
Rain since
9am
mm
Dir  Spd
km/h
Gust
km/h
Spd
kts
Gust
kts
03/11:30pm 7.3 5.1 6.2 93 0.5 NNW 7 11 4 6 1018.7 1018.6 0.0
03/11:00pm 8.0 6.0 6.3 89 0.8 NW 6 7 3 4 1018.7 1018.6 0.0
03/10:30pm 8.1 5.6 4.7 79 1.5 WNW 7 9 4 5 1018.8 1018.7 0.0
03/10:03pm 9.1 6.3 5.3 77 1.7 WSW 9 9 5 5 1018.7 1018.6 0.0
03/10:00pm 9.3 6.3 4.1 70 2.3 WSW 9 9 5 5 1018.8 1018.7 0.0
03/09:43pm 9.8 7.5 5.0 72 2.2 SW 6 7 3 4 1018.5 1018.4 0.0
03/09:30pm 9.9 7.7 5.1 72 2.2 SW 6 9 3 5 1018.4 1018.3 0.0
03/09:00pm 10.7 8.1 6.1 73 2.1 SSW 9 13 5 7 1018.3 1018.2 0.0
03/08:30pm 12.4 9.4 7.7 73 2.3 S 13 17 7 9 1018.4 1018.3 0.0
03/08:00pm 13.9 9.7 8.1 68 2.9 S 20 24 11 13 1018.4 1018.3 0.0
03/07:30pm 14.8 10.7 8.5 66 3.2 S 20 26 11 14 1018.3 1018.2 0.0
03/07:00pm 15.4 11.1 9.3 67 3.1 S 22 28 12 15 1018.0 1017.9 0.0
03/06:30pm 16.2 12.1 10.1 67 3.2 S 22 28 12 15 1017.9 1017.8 0.0
03/06:00pm 15.5 11.3 9.6 68 3.1 S 22 26 12 14 1017.8 1017.7 0.0
03/05:30pm 16.4 12.8 9.8 65 3.5 S 19 28 10 15 1018.0 1017.9 0.0
03/05:00pm 17.4 13.5 9.6 60 4.1 S 20 30 11 16 1018.3 1018.2 0.0
03/04:30pm 17.8 14.2 10.7 63 3.8 SSE 20 28 11 15 1018.6 1018.5 0.0
03/04:00pm 18.2 14.2 10.3 60 4.2 S 22 28 12 15 1019.2 1019.1 0.0
03/03:30pm 17.9 14.1 11.0 64 3.7 S 22 28 12 15 1019.7 1019.6 0.0
03/03:00pm 17.7 12.9 10.3 62 3.9 SSW 26 33 14 18 1019.9 1019.8 0.0
03/02:30pm 19.8 16.0 5.8 40 6.9 NW 15 32 8 17 1019.8 1019.7 0.0
03/02:00pm 20.5 17.8 7.2 42 6.8 WNW 11 20 6 11 1020.0 1019.9 0.0
03/01:30pm 19.8 17.0 6.9 43 6.5 NNW 11 20 6 11 1020.2 1020.1 0.0
03/01:00pm 18.7 16.0 5.5 42 6.4 NNW 9 19 5 10 1020.6 1020.5 0.0
03/12:30pm 18.0 14.5 5.6 44 6.1 N 13 24 7 13 1021.0 1020.9 0.0
03/12:00pm 18.2 15.3 8.2 52 5.1 N 13 20 7 11 1021.3 1021.2 0.0
03/11:30am 16.9 13.3 4.9 45 5.7 N 13 20 7 11 1021.7 1021.6 0.0
03/11:00am 15.7 12.3 3.8 45 5.5 NNE 11 19 6 10 1021.9 1021.8 0.0
03/10:30am 15.5 12.9 4.3 47 5.2 NE 7 15 4 8 1022.2 1022.1 0.0
03/10:00am 14.7 12.0 5.8 55 4.2 NNE 9 17 5 9 1022.7 1022.6 0.0
03/09:30am 14.2 11.8 5.3 55 4.2 NE 7 15 4 8 1022.8 1022.7 0.0
03/09:00am 12.6 9.4 5.3 61 3.4 NNE 11 15 6 8 1023.0 1022.9 0.2
03/08:30am 11.7 8.5 6.8 72 2.3 N 13 17 7 9 1023.0 1022.9 0.2
03/08:00am 10.1 8.0 8.2 88 0.9 N 9 13 5 7 1023.0 1022.9 0.2
03/07:30am 7.7 5.1 6.2 90 0.7 N 9 11 5 6 1023.0 1022.9 0.2
03/07:00am 5.7 2.7 4.3 91 0.6 N 9 11 5 6 1022.8 1022.7 0.2
03/06:30am 3.1 0.1 1.8 91 0.5 N 7 9 4 5 1023.0 1022.9 0.2
03/06:18am 2.8 -0.7 1.5 91 0.5 N 9 11 5 6 1022.9 1022.8 0.2
03/06:00am 3.7 0.8 2.4 91 0.5 N 7 11 4 6 1022.8 1022.7 0.2
03/05:30am 3.0 -0.4 1.7 91 0.5 N 9 9 5 5 1022.7 1022.6 0.2
03/05:00am 3.4 0.0 1.9 90 0.6 N 9 11 5 6 1022.5 1022.4 0.2
03/04:30am 3.8 0.4 2.0 88 0.7 N 9 11 5 6 1022.4 1022.3 0.2
03/04:00am 4.6 1.7 2.8 88 0.7 N 7 9 4 5 1022.6 1022.5 0.2
03/03:30am 4.3 1.0 2.5 88 0.7 N 9 11 5 6 1022.8 1022.7 0.2
03/03:00am 4.3 0.7 2.7 89 0.6 N 11 13 6 7 1023.1 1023.0 0.2
03/02:30am 4.0 0.7 2.2 88 0.7 N 9 11 5 6 1023.1 1023.0 0.2
03/02:00am 4.8 2.0 3.1 89 0.7 NNE 7 11 4 6 1023.1 1023.0 0.2
03/01:30am 4.6 1.4 2.8 88 0.7 N 9 11 5 6 1023.7 1023.6 0.2
03/01:00am 5.0 1.8 3.0 87 0.8 N 9 9 5 5 1024.2 1024.1 0.2
03/12:30am 5.1 2.2 2.8 85 0.9 N 7 9 4 5 1024.6 1024.5 0.2
03/12:00am 5.8 2.2 3.1 83 1.1 N 11 13 6 7 1025.1 1025.0 0.2
 
Date/Time
EDT
Temp
°C
App
Temp
°C
Dew
Point
°C
Rel
Hum
%
Delta-T
°C
Wind Press
QNH
hPa
Press
MSL
hPa
Rain since
9am
mm
Dir  Spd
km/h
Gust
km/h
Spd
kts
Gust
kts
02/11:30pm 6.1 2.9 2.9 80 1.3 NNE 9 11 5 6 1025.1 1025.0 0.2
02/11:00pm 6.5 3.8 2.9 78 1.5 N 6 6 3 3 1025.2 1025.1 0.2
02/10:30pm 6.9 4.1 2.2 72 1.9 N 6 7 3 4 1025.6 1025.5 0.2
02/10:00pm 7.4 4.8 3.3 75 1.7 N 6 6 3 3 1025.6 1025.5 0.2
02/09:30pm 8.7 7.2 3.1 68 2.4 CALM 0 0 0 0 1025.3 1025.2 0.2
02/09:00pm 10.0 6.6 4.2 67 2.6 S 11 11 6 6 1025.0 1024.9 0.2
02/08:30pm 11.2 8.6 4.2 62 3.1 S 7 9 4 5 1025.2 1025.1 0.2
02/08:00pm 11.8 7.8 3.1 55 3.8 SSW 13 17 7 9 1025.2 1025.1 0.2
02/07:30pm 12.5 7.3 2.7 51 4.3 SSW 19 26 10 14 1025.0 1024.9 0.2
02/07:00pm 13.9 8.8 3.1 48 4.8 SSW 19 24 10 13 1024.8 1024.7 0.2
02/06:30pm 13.9 8.7 3.7 50 4.6 SSW 20 26 11 14 1024.8 1024.7 0.2
02/06:00pm 14.9 9.6 4.9 51 4.7 SW 22 30 12 16 1024.9 1024.8 0.2
02/05:30pm 15.1 9.4 3.0 44 5.5 SW 22 32 12 17 1025.1 1025.0 0.2

Other formats

Comma delimited format used in spreadsheet applications
http://www.bom.gov.au/fwo/IDV60801/IDV60801.94837.axf

JavaScript Object Notation format (JSON) in row-major order
http://www.bom.gov.au/fwo/IDV60801/IDV60801.94837.json

Data quality

Most of these data are generated automatically and are frequently updated. Quality checks on data are not normally performed. It is possible for incorrect values to appear. Refer to information at About Latest Weather Observations and please check the disclaimer before using these data.